RJFR(METAR)
08/13 02:00
METAR RJFR 121700Z 24003KT 200V260 9999 FEW020 SCT050 29/24 Q1007
RMK 1CU020 3SC050 A2974=
戻る
トップページへ戻る
IMOC Co,.Ltd.